Detall de PIREP

Printer-friendly versionPDF version

[2011/01/01 03:06:00]
Flight IATA:CT1004
Pilot Number:042
Company ICAO:CAT
Aircraft Type:B744/E
PAX:250
Departing Airport: LEBL
Destination Airport: WSSS
Alternate Airport:WMKK
Online: VATSIM
Route:VERSO UM24 LAPIT UN725 ORKUM UM603 PINDO UN79 GOLDO UG12 YAA UG8 PIMAV UL614 BAG UT31 SIV UA4 ERZ UW94 ARI UP146 RST UL333 SERKA B466 GASIR G452 RK R471 TIGER L333 JJP INTIL L333 BAVOX MEMID L333 KKJ L759 PUT B579 VPL W531 VIH R325 VJR
Flight Level:FL370
No Slew and time accel
No pause
Crash detect
Detect pilot in Cockpit between each 30 and 45 minutes
03:06 Zero fuel Weight: 466689 Lbs, Fuel Weight: 383036 Lbs
03:06 VATSIM:LEBL 010230Z 35008KT 7000 SCT020 09/09 Q1019 NOSIG
03:06 VATSIM:WSSS 010230Z VRB08KT 9999 SCT015 BKN300 29/25 Q1008 NOSIG
03:06 VOICE CATALONIAN/X-MAS CHARTER
03:11 Parking Brakes off
03:20 Take-off
03:20 Take off Weight: 846820 Lbs
03:20 Wind: 342 @ 008 Knots Heading: 063
03:20 POS N41 17 27 E002 05 58
03:20 Gear Up: 198 Knots
03:20 Flaps:3 at 198 Knots
03:20 Flaps:2 at 219 Knots
03:20 Flaps:1 at 252 Knots
03:21 Flaps:0 at 237 Knots
03:35 Wind:102@010 Knots Heading: 115 Ground Speed: 461 Knots Altitude 25938 ft
03:50 Wind:148@008 Knots Heading: 098 Ground Speed: 476 Knots Altitude 32896 ft
04:05 Wind:238@007 Knots Heading: 084 Ground Speed: 488 Knots Altitude 33139 ft
04:20 Wind:147@005 Knots Heading: 087 Ground Speed: 479 Knots Altitude 33162 ft
04:35 Wind:267@004 Knots Heading: 088 Ground Speed: 485 Knots Altitude 35150 ft
04:50 Wind:304@010 Knots Heading: 089 Ground Speed: 484 Knots Altitude 35193 ft
05:05 Wind:314@017 Knots Heading: 092 Ground Speed: 481 Knots Altitude 35200 ft
05:20 Wind:301@022 Knots Heading: 082 Ground Speed: 484 Knots Altitude 35239 ft
05:27 TOC
05:27 Fuel Weight: 308941 Lb
05:35 Wind:300@004 Knots Heading: 085 Ground Speed: 471 Knots Altitude 37204 ft
05:50 Wind:302@038 Knots Heading: 108 Ground Speed: 504 Knots Altitude 37221 ft
06:05 Wind:301@043 Knots Heading: 095 Ground Speed: 505 Knots Altitude 37267 ft
06:20 Wind:298@039 Knots Heading: 091 Ground Speed: 504 Knots Altitude 37165 ft
06:35 Wind:291@031 Knots Heading: 095 Ground Speed: 503 Knots Altitude 37135 ft
06:50 Wind:272@028 Knots Heading: 086 Ground Speed: 505 Knots Altitude 37089 ft
07:05 Wind:262@028 Knots Heading: 102 Ground Speed: 503 Knots Altitude 36998 ft
07:20 Wind:241@026 Knots Heading: 115 Ground Speed: 490 Knots Altitude 36971 ft
07:35 Wind:242@050 Knots Heading: 119 Ground Speed: 502 Knots Altitude 36991 ft
07:50 Wind:234@058 Knots Heading: 122 Ground Speed: 481 Knots Altitude 36961 ft
08:05 Wind:237@054 Knots Heading: 120 Ground Speed: 486 Knots Altitude 36965 ft
08:20 Wind:246@041 Knots Heading: 117 Ground Speed: 507 Knots Altitude 37040 ft
08:35 Wind:248@047 Knots Heading: 118 Ground Speed: 495 Knots Altitude 37060 ft
08:50 Wind:248@049 Knots Heading: 119 Ground Speed: 517 Knots Altitude 37096 ft
09:05 Wind:250@075 Knots Heading: 123 Ground Speed: 540 Knots Altitude 37106 ft
09:20 Wind:257@092 Knots Heading: 132 Ground Speed: 537 Knots Altitude 37099 ft
09:35 Wind:259@031 Knots Heading: 128 Ground Speed: 509 Knots Altitude 37125 ft
09:50 Wind:263@063 Knots Heading: 166 Ground Speed: 497 Knots Altitude 37109 ft
10:05 Wind:266@097 Knots Heading: 100 Ground Speed: 581 Knots Altitude 37050 ft
10:20 Wind:273@096 Knots Heading: 085 Ground Speed: 579 Knots Altitude 38047 ft
10:35 Wind:276@096 Knots Heading: 121 Ground Speed: 571 Knots Altitude 38083 ft
10:50 Wind:274@102 Knots Heading: 122 Ground Speed: 575 Knots Altitude 38139 ft
11:05 Wind:273@084 Knots Heading: 122 Ground Speed: 562 Knots Altitude 38021 ft
11:20 Wind:269@082 Knots Heading: 136 Ground Speed: 545 Knots Altitude 37962 ft
11:35 Wind:266@075 Knots Heading: 135 Ground Speed: 540 Knots Altitude 37933 ft
11:50 Wind:260@070 Knots Heading: 136 Ground Speed: 532 Knots Altitude 37877 ft
12:05 Wind:252@047 Knots Heading: 140 Ground Speed: 510 Knots Altitude 37834 ft
12:20 Wind:251@042 Knots Heading: 139 Ground Speed: 508 Knots Altitude 37837 ft
12:35 Wind:244@033 Knots Heading: 139 Ground Speed: 500 Knots Altitude 37841 ft
12:50 Wind:230@023 Knots Heading: 137 Ground Speed: 494 Knots Altitude 37841 ft
13:05 Wind:212@021 Knots Heading: 136 Ground Speed: 489 Knots Altitude 37841 ft
13:20 Wind:186@017 Knots Heading: 137 Ground Speed: 480 Knots Altitude 37814 ft
13:35 Wind:138@013 Knots Heading: 131 Ground Speed: 477 Knots Altitude 37805 ft
13:50 Wind:136@012 Knots Heading: 137 Ground Speed: 480 Knots Altitude 37828 ft
14:05 Wind:131@027 Knots Heading: 137 Ground Speed: 464 Knots Altitude 37834 ft
14:10 TOD
14:10 Fuel Weight: 102123 Lb
14:20 Wind:095@006 Knots Heading: 140 Ground Speed: 485 Knots Altitude 30374 ft
14:35 Wind:074@015 Knots Heading: 141 Ground Speed: 408 Knots Altitude 26765 ft
14:50 Wind:097@007 Knots Heading: 137 Ground Speed: 416 Knots Altitude 21843 ft
15:05 Wind:246@006 Knots Heading: 150 Ground Speed: 352 Knots Altitude 16394 ft
15:20 Wind:178@000 Knots Heading: 151 Ground Speed: 283 Knots Altitude 9983 ft
15:29 Flaps:1 at 222 Knots
15:31 Flaps:2 at 199 Knots
15:33 Flaps:3 at 176 Knots
15:35 Wind:225@000 Knots Heading: 083 Ground Speed: 184 Knots Altitude 3996 ft
15:36 Flaps:4 at 170 Knots
15:36 Gear Down: 169 Knots
15:36 Flaps:5 at 157 Knots
15:39 Flaps:6 at 150 Knots
15:43 TouchDown:Rate -76 ft/min Speed: 142 Knots
15:44 VATSIM:WSSS 011530Z 03007KT 350V070 9999 FEW016 SCT160 BKN300 27/25 Q1009 NOSIG
15:44 Land
15:44 Wind:329@005 Knots
15:44 Heading: 023
15:44 Flight Duration: 12:24
15:44 Landing Weight: 541607 Lbs
15:44 POS N01 21 44 E103 58 59
15:49 Parking brakes on
15:49 Block to Block Duration: 12:38
15:49 Final Fuel: 73871 Lbls
15:49 Spent Fuel: 309165 Lbls
15:49 Flight Length: 5635 NM
15:49 TOD Land Length: 535 NM

Exportar CSV

Powered by Drupal - Modified by Danger4k